sensor_id;sensor_type;location;lat;lon;timestamp;P1;durP1;ratioP1;P2;durP2;ratioP2
48403;SDS011;34202;52.536;6.042;2022-10-23T00:00:06;15.40;;;10.40;;
48403;SDS011;34202;52.536;6.042;2022-10-23T00:05:07;14.60;;;10.90;;
48403;SDS011;34202;52.536;6.042;2022-10-23T00:10:08;14.10;;;9.50;;
48403;SDS011;34202;52.536;6.042;2022-10-23T00:15:09;14.70;;;10.40;;
48403;SDS011;34202;52.536;6.042;2022-10-23T00:20:11;16.40;;;10.60;;
48403;SDS011;34202;52.536;6.042;2022-10-23T00:25:12;11.30;;;9.00;;
48403;SDS011;34202;52.536;6.042;2022-10-23T00:30:12;15.70;;;9.90;;
48403;SDS011;34202;52.536;6.042;2022-10-23T00:35:13;15.90;;;10.10;;
48403;SDS011;34202;52.536;6.042;2022-10-23T00:40:13;11.90;;;9.10;;
48403;SDS011;34202;52.536;6.042;2022-10-23T00:45:22;16.80;;;10.10;;
48403;SDS011;34202;52.536;6.042;2022-10-23T00:50:31;15.60;;;10.20;;
48403;SDS011;34202;52.536;6.042;2022-10-23T00:55:32;17.00;;;9.50;;
48403;SDS011;34202;52.536;6.042;2022-10-23T01:00:40;15.10;;;9.00;;
48403;SDS011;34202;52.536;6.042;2022-10-23T01:05:52;10.20;;;8.50;;
48403;SDS011;34202;52.536;6.042;2022-10-23T01:32:28;10.70;;;7.60;;
48403;SDS011;34202;52.536;6.042;2022-10-23T01:38:30;13.20;;;8.30;;
48403;SDS011;34202;52.536;6.042;2022-10-23T01:48:13;11.90;;;7.00;;
48403;SDS011;34202;52.536;6.042;2022-10-23T01:53:17;10.70;;;7.50;;
48403;SDS011;34202;52.536;6.042;2022-10-23T01:58:19;19.70;;;8.10;;
48403;SDS011;34202;52.536;6.042;2022-10-23T02:03:20;11.60;;;8.10;;
48403;SDS011;34202;52.536;6.042;2022-10-23T02:08:22;12.60;;;8.10;;
48403;SDS011;34202;52.536;6.042;2022-10-23T02:13:25;10.00;;;7.80;;
48403;SDS011;34202;52.536;6.042;2022-10-23T02:23:53;12.70;;;8.20;;
48403;SDS011;34202;52.536;6.042;2022-10-23T02:29:15;12.90;;;8.40;;
48403;SDS011;34202;52.536;6.042;2022-10-23T02:34:21;10.80;;;8.10;;
48403;SDS011;34202;52.536;6.042;2022-10-23T02:39:22;9.30;;;8.00;;
48403;SDS011;34202;52.536;6.042;2022-10-23T03:01:08;11.00;;;8.10;;
48403;SDS011;34202;52.536;6.042;2022-10-23T03:06:12;17.80;;;9.00;;
48403;SDS011;34202;52.536;6.042;2022-10-23T03:11:13;11.00;;;8.70;;
48403;SDS011;34202;52.536;6.042;2022-10-23T03:16:13;12.30;;;8.50;;
48403;SDS011;34202;52.536;6.042;2022-10-23T03:21:14;13.60;;;9.70;;
48403;SDS011;34202;52.536;6.042;2022-10-23T03:26:14;14.10;;;8.90;;
48403;SDS011;34202;52.536;6.042;2022-10-23T03:31:14;13.60;;;9.20;;
48403;SDS011;34202;52.536;6.042;2022-10-23T03:36:15;17.60;;;9.30;;
48403;SDS011;34202;52.536;6.042;2022-10-23T03:41:15;17.30;;;10.30;;
48403;SDS011;34202;52.536;6.042;2022-10-23T03:46:15;15.90;;;9.50;;
48403;SDS011;34202;52.536;6.042;2022-10-23T03:51:15;15.40;;;8.80;;
48403;SDS011;34202;52.536;6.042;2022-10-23T03:56:16;11.60;;;9.10;;
48403;SDS011;34202;52.536;6.042;2022-10-23T04:01:16;15.40;;;8.70;;
48403;SDS011;34202;52.536;6.042;2022-10-23T04:06:16;13.20;;;8.40;;
48403;SDS011;34202;52.536;6.042;2022-10-23T04:11:17;13.60;;;9.30;;
48403;SDS011;34202;52.536;6.042;2022-10-23T04:16:17;16.10;;;9.20;;
48403;SDS011;34202;52.536;6.042;2022-10-23T04:21:17;20.40;;;8.70;;
48403;SDS011;34202;52.536;6.042;2022-10-23T04:26:18;16.50;;;7.50;;
48403;SDS011;34202;52.536;6.042;2022-10-23T04:31:18;19.90;;;8.40;;
48403;SDS011;34202;52.536;6.042;2022-10-23T04:36:19;22.00;;;9.80;;
48403;SDS011;34202;52.536;6.042;2022-10-23T04:41:19;16.30;;;8.70;;
48403;SDS011;34202;52.536;6.042;2022-10-23T04:46:19;10.60;;;8.20;;
48403;SDS011;34202;52.536;6.042;2022-10-23T04:51:20;14.50;;;10.00;;
48403;SDS011;34202;52.536;6.042;2022-10-23T04:56:20;15.70;;;8.70;;
48403;SDS011;34202;52.536;6.042;2022-10-23T05:01:20;17.10;;;8.90;;
48403;SDS011;34202;52.536;6.042;2022-10-23T05:06:21;14.70;;;7.90;;
48403;SDS011;34202;52.536;6.042;2022-10-23T05:11:21;15.70;;;8.50;;
48403;SDS011;34202;52.536;6.042;2022-10-23T05:16:27;17.10;;;9.00;;
48403;SDS011;34202;52.536;6.042;2022-10-23T05:21:41;18.10;;;8.20;;
48403;SDS011;34202;52.536;6.042;2022-10-23T05:26:42;18.10;;;8.60;;
48403;SDS011;34202;52.536;6.042;2022-10-23T05:31:42;20.00;;;9.00;;
48403;SDS011;34202;52.536;6.042;2022-10-23T05:36:43;20.50;;;8.70;;
48403;SDS011;34202;52.536;6.042;2022-10-23T05:41:44;17.00;;;8.40;;
48403;SDS011;34202;52.536;6.042;2022-10-23T05:46:44;17.00;;;8.00;;
48403;SDS011;34202;52.536;6.042;2022-10-23T05:51:45;11.10;;;9.20;;
48403;SDS011;34202;52.536;6.042;2022-10-23T05:56:45;14.30;;;8.60;;
48403;SDS011;34202;52.536;6.042;2022-10-23T06:01:45;16.30;;;8.80;;
48403;SDS011;34202;52.536;6.042;2022-10-23T06:06:46;14.90;;;8.00;;
48403;SDS011;34202;52.536;6.042;2022-10-23T06:11:46;20.10;;;8.40;;
48403;SDS011;34202;52.536;6.042;2022-10-23T06:16:46;16.00;;;8.00;;
48403;SDS011;34202;52.536;6.042;2022-10-23T06:21:47;19.70;;;8.10;;
48403;SDS011;34202;52.536;6.042;2022-10-23T06:26:47;21.90;;;10.40;;
48403;SDS011;34202;52.536;6.042;2022-10-23T06:31:47;16.10;;;7.90;;
48403;SDS011;34202;52.536;6.042;2022-10-23T06:36:48;13.10;;;7.70;;
48403;SDS011;34202;52.536;6.042;2022-10-23T06:41:48;15.20;;;8.30;;
48403;SDS011;34202;52.536;6.042;2022-10-23T06:46:48;13.50;;;7.80;;
48403;SDS011;34202;52.536;6.042;2022-10-23T06:51:49;15.80;;;8.40;;
48403;SDS011;34202;52.536;6.042;2022-10-23T06:56:49;18.00;;;9.50;;
48403;SDS011;34202;52.536;6.042;2022-10-23T07:01:50;12.80;;;8.20;;
48403;SDS011;34202;52.536;6.042;2022-10-23T07:06:50;15.70;;;8.40;;
48403;SDS011;34202;52.536;6.042;2022-10-23T07:11:53;11.60;;;7.30;;
48403;SDS011;34202;52.536;6.042;2022-10-23T07:16:53;16.10;;;7.80;;
48403;SDS011;34202;52.536;6.042;2022-10-23T07:21:54;10.40;;;7.10;;
48403;SDS011;34202;52.536;6.042;2022-10-23T07:26:54;11.40;;;7.00;;
48403;SDS011;34202;52.536;6.042;2022-10-23T07:31:54;17.30;;;8.30;;
48403;SDS011;34202;52.536;6.042;2022-10-23T07:36:56;10.90;;;6.90;;
48403;SDS011;34202;52.536;6.042;2022-10-23T07:41:56;16.10;;;7.40;;
48403;SDS011;34202;52.536;6.042;2022-10-23T07:46:56;10.00;;;7.10;;
48403;SDS011;34202;52.536;6.042;2022-10-23T07:51:57;14.30;;;7.80;;
48403;SDS011;34202;52.536;6.042;2022-10-23T07:56:58;11.30;;;8.10;;
48403;SDS011;34202;52.536;6.042;2022-10-23T08:01:58;13.90;;;7.80;;
48403;SDS011;34202;52.536;6.042;2022-10-23T08:06:59;11.40;;;7.00;;
48403;SDS011;34202;52.536;6.042;2022-10-23T08:12:00;9.10;;;6.60;;
48403;SDS011;34202;52.536;6.042;2022-10-23T08:17:00;8.80;;;6.60;;
48403;SDS011;34202;52.536;6.042;2022-10-23T08:22:01;11.30;;;8.50;;
48403;SDS011;34202;52.536;6.042;2022-10-23T08:27:02;11.00;;;7.20;;
48403;SDS011;34202;52.536;6.042;2022-10-23T08:32:03;12.40;;;7.60;;
48403;SDS011;34202;52.536;6.042;2022-10-23T08:37:03;14.90;;;6.90;;
48403;SDS011;34202;52.536;6.042;2022-10-23T08:42:04;15.20;;;9.10;;
48403;SDS011;34202;52.536;6.042;2022-10-23T08:47:06;10.80;;;6.70;;
48403;SDS011;34202;52.536;6.042;2022-10-23T08:57:34;8.80;;;6.30;;
48403;SDS011;34202;52.536;6.042;2022-10-23T09:02:51;16.40;;;7.00;;
48403;SDS011;34202;52.536;6.042;2022-10-23T09:14:02;8.70;;;7.10;;
48403;SDS011;34202;52.536;6.042;2022-10-23T09:19:00;7.10;;;6.40;;
48403;SDS011;34202;52.536;6.042;2022-10-23T09:24:01;14.60;;;5.90;;
48403;SDS011;34202;52.536;6.042;2022-10-23T09:29:05;6.60;;;5.40;;
48403;SDS011;34202;52.536;6.042;2022-10-23T09:34:19;11.90;;;5.40;;
48403;SDS011;34202;52.536;6.042;2022-10-23T09:39:31;8.60;;;5.90;;
48403;SDS011;34202;52.536;6.042;2022-10-23T09:44:33;10.50;;;4.70;;
48403;SDS011;34202;52.536;6.042;2022-10-23T09:49:34;8.10;;;5.60;;
48403;SDS011;34202;52.536;6.042;2022-10-23T09:54:47;11.80;;;5.90;;
48403;SDS011;34202;52.536;6.042;2022-10-23T10:15:52;10.10;;;5.10;;
48403;SDS011;34202;52.536;6.042;2022-10-23T10:21:03;9.20;;;5.20;;
48403;SDS011;34202;52.536;6.042;2022-10-23T10:31:44;8.60;;;5.00;;
48403;SDS011;34202;52.536;6.042;2022-10-23T10:37:05;6.30;;;5.00;;
48403;SDS011;34202;52.536;6.042;2022-10-23T10:48:02;13.20;;;5.20;;
48403;SDS011;34202;52.536;6.042;2022-10-23T11:03:45;10.10;;;4.50;;
48403;SDS011;34202;52.536;6.042;2022-10-23T11:09:19;9.70;;;4.30;;
48403;SDS011;34202;52.536;6.042;2022-10-23T11:14:22;9.40;;;5.10;;
48403;SDS011;34202;52.536;6.042;2022-10-23T11:19:34;7.10;;;4.30;;
48403;SDS011;34202;52.536;6.042;2022-10-23T11:35:36;9.90;;;4.10;;
48403;SDS011;34202;52.536;6.042;2022-10-23T11:41:00;7.40;;;4.30;;
48403;SDS011;34202;52.536;6.042;2022-10-23T11:46:10;13.80;;;5.00;;
48403;SDS011;34202;52.536;6.042;2022-10-23T11:51:30;8.40;;;3.80;;
48403;SDS011;34202;52.536;6.042;2022-10-23T11:56:35;5.70;;;4.40;;
48403;SDS011;34202;52.536;6.042;2022-10-23T12:01:40;10.20;;;4.30;;
48403;SDS011;34202;52.536;6.042;2022-10-23T12:12:01;5.80;;;4.10;;
48403;SDS011;34202;52.536;6.042;2022-10-23T12:22:22;7.40;;;4.50;;
48403;SDS011;34202;52.536;6.042;2022-10-23T12:27:38;5.80;;;4.00;;
48403;SDS011;34202;52.536;6.042;2022-10-23T12:43:24;6.70;;;3.80;;
48403;SDS011;34202;52.536;6.042;2022-10-23T12:48:27;5.10;;;2.90;;
48403;SDS011;34202;52.536;6.042;2022-10-23T12:53:27;10.00;;;4.00;;
48403;SDS011;34202;52.536;6.042;2022-10-23T12:58:28;7.80;;;3.70;;
48403;SDS011;34202;52.536;6.042;2022-10-23T13:03:31;7.60;;;3.80;;
48403;SDS011;34202;52.536;6.042;2022-10-23T13:08:35;11.10;;;4.00;;
48403;SDS011;34202;52.536;6.042;2022-10-23T13:13:39;8.30;;;3.40;;
48403;SDS011;34202;52.536;6.042;2022-10-23T13:18:41;5.00;;;3.20;;
48403;SDS011;34202;52.536;6.042;2022-10-23T13:23:41;6.60;;;3.00;;
48403;SDS011;34202;52.536;6.042;2022-10-23T13:28:43;7.50;;;2.90;;
48403;SDS011;34202;52.536;6.042;2022-10-23T13:33:46;5.30;;;2.70;;
48403;SDS011;34202;52.536;6.042;2022-10-23T13:39:09;3.40;;;2.90;;
48403;SDS011;34202;52.536;6.042;2022-10-23T13:44:14;5.10;;;2.70;;
48403;SDS011;34202;52.536;6.042;2022-10-23T13:49:16;10.20;;;2.60;;
48403;SDS011;34202;52.536;6.042;2022-10-23T13:54:19;8.80;;;2.70;;
48403;SDS011;34202;52.536;6.042;2022-10-23T13:59:24;3.80;;;2.60;;
48403;SDS011;34202;52.536;6.042;2022-10-23T14:04:25;5.50;;;2.70;;
48403;SDS011;34202;52.536;6.042;2022-10-23T14:09:25;5.60;;;2.90;;
48403;SDS011;34202;52.536;6.042;2022-10-23T14:14:25;6.10;;;3.00;;
48403;SDS011;34202;52.536;6.042;2022-10-23T14:19:25;6.20;;;2.50;;
48403;SDS011;34202;52.536;6.042;2022-10-23T14:24:26;5.20;;;2.00;;
48403;SDS011;34202;52.536;6.042;2022-10-23T14:29:26;5.20;;;2.20;;
48403;SDS011;34202;52.536;6.042;2022-10-23T14:34:26;9.90;;;2.60;;
48403;SDS011;34202;52.536;6.042;2022-10-23T14:39:26;5.50;;;2.20;;
48403;SDS011;34202;52.536;6.042;2022-10-23T14:44:27;3.50;;;1.70;;
48403;SDS011;34202;52.536;6.042;2022-10-23T14:49:27;3.50;;;1.90;;
48403;SDS011;34202;52.536;6.042;2022-10-23T14:54:28;6.80;;;2.50;;
48403;SDS011;34202;52.536;6.042;2022-10-23T14:59:30;6.00;;;2.10;;
48403;SDS011;34202;52.536;6.042;2022-10-23T15:04:30;5.10;;;2.10;;
48403;SDS011;34202;52.536;6.042;2022-10-23T15:09:30;6.40;;;2.60;;
48403;SDS011;34202;52.536;6.042;2022-10-23T15:14:34;4.70;;;2.10;;
48403;SDS011;34202;52.536;6.042;2022-10-23T15:19:34;14.90;;;4.50;;
48403;SDS011;34202;52.536;6.042;2022-10-23T15:24:34;10.30;;;2.30;;
48403;SDS011;34202;52.536;6.042;2022-10-23T15:29:35;5.30;;;2.30;;
48403;SDS011;34202;52.536;6.042;2022-10-23T15:34:35;3.60;;;2.20;;
48403;SDS011;34202;52.536;6.042;2022-10-23T15:39:36;7.20;;;2.50;;
48403;SDS011;34202;52.536;6.042;2022-10-23T15:44:36;4.80;;;2.20;;
48403;SDS011;34202;52.536;6.042;2022-10-23T15:49:38;3.40;;;2.10;;
48403;SDS011;34202;52.536;6.042;2022-10-23T15:54:38;7.30;;;2.40;;
48403;SDS011;34202;52.536;6.042;2022-10-23T15:59:39;7.60;;;4.30;;
48403;SDS011;34202;52.536;6.042;2022-10-23T16:04:39;9.90;;;5.40;;
48403;SDS011;34202;52.536;6.042;2022-10-23T16:09:39;8.50;;;3.30;;
48403;SDS011;34202;52.536;6.042;2022-10-23T16:14:40;4.80;;;3.00;;
48403;SDS011;34202;52.536;6.042;2022-10-23T16:19:40;3.60;;;2.90;;
48403;SDS011;34202;52.536;6.042;2022-10-23T16:24:40;4.50;;;2.70;;
48403;SDS011;34202;52.536;6.042;2022-10-23T16:29:41;6.10;;;3.40;;
48403;SDS011;34202;52.536;6.042;2022-10-23T16:34:41;6.40;;;3.60;;
48403;SDS011;34202;52.536;6.042;2022-10-23T16:39:41;9.50;;;3.60;;
48403;SDS011;34202;52.536;6.042;2022-10-23T16:44:41;7.90;;;3.00;;
48403;SDS011;34202;52.536;6.042;2022-10-23T16:49:42;7.40;;;2.90;;
48403;SDS011;34202;52.536;6.042;2022-10-23T16:54:42;8.60;;;4.00;;
48403;SDS011;34202;52.536;6.042;2022-10-23T16:59:43;4.60;;;3.40;;
48403;SDS011;34202;52.536;6.042;2022-10-23T17:04:43;7.10;;;2.50;;
48403;SDS011;34202;52.536;6.042;2022-10-23T17:09:44;4.10;;;2.50;;
48403;SDS011;34202;52.536;6.042;2022-10-23T17:14:45;7.70;;;2.80;;
48403;SDS011;34202;52.536;6.042;2022-10-23T17:19:45;9.20;;;3.40;;
48403;SDS011;34202;52.536;6.042;2022-10-23T17:24:46;5.50;;;2.40;;
48403;SDS011;34202;52.536;6.042;2022-10-23T17:29:46;8.10;;;3.40;;
48403;SDS011;34202;52.536;6.042;2022-10-23T17:34:46;4.60;;;3.30;;
48403;SDS011;34202;52.536;6.042;2022-10-23T17:39:47;8.60;;;2.30;;
48403;SDS011;34202;52.536;6.042;2022-10-23T17:44:47;6.50;;;2.90;;
48403;SDS011;34202;52.536;6.042;2022-10-23T17:49:47;5.20;;;3.90;;
48403;SDS011;34202;52.536;6.042;2022-10-23T17:54:50;7.30;;;3.60;;
48403;SDS011;34202;52.536;6.042;2022-10-23T17:59:51;11.20;;;3.40;;
48403;SDS011;34202;52.536;6.042;2022-10-23T18:04:51;7.40;;;3.50;;
48403;SDS011;34202;52.536;6.042;2022-10-23T18:09:51;5.30;;;3.10;;
48403;SDS011;34202;52.536;6.042;2022-10-23T18:14:52;9.10;;;2.60;;
48403;SDS011;34202;52.536;6.042;2022-10-23T18:19:52;8.60;;;2.50;;
48403;SDS011;34202;52.536;6.042;2022-10-23T18:24:52;5.00;;;2.90;;
48403;SDS011;34202;52.536;6.042;2022-10-23T18:29:53;9.10;;;2.80;;
48403;SDS011;34202;52.536;6.042;2022-10-23T18:34:53;6.10;;;3.20;;
48403;SDS011;34202;52.536;6.042;2022-10-23T18:39:53;7.10;;;2.70;;
48403;SDS011;34202;52.536;6.042;2022-10-23T18:44:53;6.50;;;2.60;;
48403;SDS011;34202;52.536;6.042;2022-10-23T18:49:54;8.90;;;2.90;;
48403;SDS011;34202;52.536;6.042;2022-10-23T18:54:54;9.00;;;3.00;;
48403;SDS011;34202;52.536;6.042;2022-10-23T18:59:55;5.10;;;3.10;;
48403;SDS011;34202;52.536;6.042;2022-10-23T19:04:55;9.10;;;3.20;;
48403;SDS011;34202;52.536;6.042;2022-10-23T19:09:55;5.90;;;3.00;;
48403;SDS011;34202;52.536;6.042;2022-10-23T19:14:55;8.00;;;3.10;;
48403;SDS011;34202;52.536;6.042;2022-10-23T19:19:58;4.90;;;2.50;;
48403;SDS011;34202;52.536;6.042;2022-10-23T19:25:09;6.50;;;2.90;;
48403;SDS011;34202;52.536;6.042;2022-10-23T19:30:14;3.70;;;2.70;;
48403;SDS011;34202;52.536;6.042;2022-10-23T19:35:18;7.40;;;2.60;;
48403;SDS011;34202;52.536;6.042;2022-10-23T19:40:19;9.30;;;3.00;;
48403;SDS011;34202;52.536;6.042;2022-10-23T19:45:20;6.70;;;2.70;;
48403;SDS011;34202;52.536;6.042;2022-10-23T19:50:21;3.20;;;2.20;;
48403;SDS011;34202;52.536;6.042;2022-10-23T19:55:21;3.70;;;2.40;;
48403;SDS011;34202;52.536;6.042;2022-10-23T20:00:22;6.80;;;2.60;;
48403;SDS011;34202;52.536;6.042;2022-10-23T20:05:23;5.50;;;2.80;;
48403;SDS011;34202;52.536;6.042;2022-10-23T20:10:24;8.00;;;2.70;;
48403;SDS011;34202;52.536;6.042;2022-10-23T20:15:24;12.40;;;3.60;;
48403;SDS011;34202;52.536;6.042;2022-10-23T20:20:25;5.90;;;2.70;;
48403;SDS011;34202;52.536;6.042;2022-10-23T20:25:25;10.00;;;2.10;;
48403;SDS011;34202;52.536;6.042;2022-10-23T20:30:26;4.60;;;2.70;;
48403;SDS011;34202;52.536;6.042;2022-10-23T20:35:26;6.40;;;1.80;;
48403;SDS011;34202;52.536;6.042;2022-10-23T20:40:27;6.40;;;2.40;;
48403;SDS011;34202;52.536;6.042;2022-10-23T20:45:27;4.90;;;2.30;;
48403;SDS011;34202;52.536;6.042;2022-10-23T20:50:27;9.30;;;2.90;;
48403;SDS011;34202;52.536;6.042;2022-10-23T20:55:27;4.00;;;2.00;;
48403;SDS011;34202;52.536;6.042;2022-10-23T21:00:28;7.80;;;2.30;;
48403;SDS011;34202;52.536;6.042;2022-10-23T21:05:29;6.10;;;2.80;;
48403;SDS011;34202;52.536;6.042;2022-10-23T21:10:29;16.20;;;4.50;;
48403;SDS011;34202;52.536;6.042;2022-10-23T21:15:29;5.70;;;2.40;;
48403;SDS011;34202;52.536;6.042;2022-10-23T21:20:30;8.40;;;2.40;;
48403;SDS011;34202;52.536;6.042;2022-10-23T21:25:30;5.60;;;2.00;;
48403;SDS011;34202;52.536;6.042;2022-10-23T21:30:30;5.10;;;2.70;;
48403;SDS011;34202;52.536;6.042;2022-10-23T21:35:31;6.70;;;1.90;;
48403;SDS011;34202;52.536;6.042;2022-10-23T21:40:32;2.60;;;2.00;;
48403;SDS011;34202;52.536;6.042;2022-10-23T21:45:33;4.10;;;1.90;;
48403;SDS011;34202;52.536;6.042;2022-10-23T21:50:33;4.30;;;1.90;;
48403;SDS011;34202;52.536;6.042;2022-10-23T21:55:34;5.30;;;1.90;;
48403;SDS011;34202;52.536;6.042;2022-10-23T22:00:34;4.00;;;1.80;;
48403;SDS011;34202;52.536;6.042;2022-10-23T22:05:34;3.60;;;1.70;;
48403;SDS011;34202;52.536;6.042;2022-10-23T22:10:35;7.20;;;1.40;;
48403;SDS011;34202;52.536;6.042;2022-10-23T22:15:35;3.80;;;1.40;;
48403;SDS011;34202;52.536;6.042;2022-10-23T22:20:36;4.40;;;1.40;;
48403;SDS011;34202;52.536;6.042;2022-10-23T22:25:36;4.30;;;1.30;;
48403;SDS011;34202;52.536;6.042;2022-10-23T22:30:37;6.20;;;1.20;;
48403;SDS011;34202;52.536;6.042;2022-10-23T22:35:37;4.60;;;1.20;;
48403;SDS011;34202;52.536;6.042;2022-10-23T22:40:37;2.90;;;1.40;;
48403;SDS011;34202;52.536;6.042;2022-10-23T22:45:38;2.00;;;1.30;;
48403;SDS011;34202;52.536;6.042;2022-10-23T22:50:38;2.60;;;1.40;;
48403;SDS011;34202;52.536;6.042;2022-10-23T22:55:40;5.10;;;1.20;;
48403;SDS011;34202;52.536;6.042;2022-10-23T23:00:40;3.40;;;1.10;;
48403;SDS011;34202;52.536;6.042;2022-10-23T23:05:41;2.90;;;1.30;;
48403;SDS011;34202;52.536;6.042;2022-10-23T23:10:43;4.20;;;1.00;;
48403;SDS011;34202;52.536;6.042;2022-10-23T23:15:54;3.40;;;1.30;;
48403;SDS011;34202;52.536;6.042;2022-10-23T23:20:59;1.70;;;1.00;;
48403;SDS011;34202;52.536;6.042;2022-10-23T23:26:03;3.50;;;1.30;;
48403;SDS011;34202;52.536;6.042;2022-10-23T23:31:12;5.80;;;1.50;;
48403;SDS011;34202;52.536;6.042;2022-10-23T23:36:18;4.90;;;1.40;;
48403;SDS011;34202;52.536;6.042;2022-10-23T23:41:20;3.80;;;1.40;;
48403;SDS011;34202;52.536;6.042;2022-10-23T23:46:21;5.50;;;1.30;;
48403;SDS011;34202;52.536;6.042;2022-10-23T23:51:22;5.50;;;1.50;;
48403;SDS011;34202;52.536;6.042;2022-10-23T23:56:23;5.10;;;1.50;;
